»·PEaware :: DAL2688 KLAS-KSLC

DAL2688 :: KLAS-KSLC

FLIGHT INFORMATION

Flight Status: Arrived
Operator:
Delta Air Lines
More flights by this operator :: More flights under this callsign
Pilot: Angelo W. (26512)
Aircraft: MCDONNELL-DOUGLAS MD-82
(MD82)
More flights by this aircraft type
Origin: KLAS McCarran Intl
United States
Destination: KSLC Salt Lake City Intl
United States
More flights between these airports :: More routes between these airports
Route: +STAAV8 MLF QWENN5
File this flight plan on PilotEdge
Remarks:
Altitude:
(Current/Filed)
31,000ft
Speed:
(Current/Filed)
340kts
Departed: 09-Oct-19 12:18 PM
Arrived: 09-Oct-19 01:13 PM
Distance/Time
Traveled:
319nm/0:55
Distance/Time
To Go:
Arrived

Flight Plot

Page will automatically refresh every two minutes.

Flight plan parsing failed; only flown route is shown


Map Options




Map Legend


Flown Route
Filed Route
Departure Airport
Arrival Airport
Navaid (VOR, NDB)
Fix

Horizontal Profiles

Position Reports

Time Latitude Longitude Heading Altitude Ground
Speed
09-Oct-19 11:42 36.080749 -115.138481 315 2190ft 0kts
09-Oct-19 11:43 36.080749 -115.138481 315 2190ft 0kts
09-Oct-19 11:44 36.080749 -115.138481 315 2190ft 0kts
09-Oct-19 11:45 36.080749 -115.138481 315 2190ft 0kts
09-Oct-19 11:46 36.080749 -115.138481 315 2190ft 0kts
09-Oct-19 11:47 36.080749 -115.138481 315 2190ft 0kts
09-Oct-19 11:48 36.080749 -115.138481 315 2190ft 0kts
09-Oct-19 11:49 36.080749 -115.138481 315 2190ft 0kts
09-Oct-19 11:50 36.080749 -115.138481 315 2190ft 0kts
09-Oct-19 11:51 36.080749 -115.138481 315 2190ft 0kts
09-Oct-19 11:52 36.080749 -115.138481 315 2190ft 0kts
09-Oct-19 11:53 36.080749 -115.138481 315 2190ft 0kts
09-Oct-19 11:54 36.080749 -115.138481 315 2190ft 0kts
09-Oct-19 11:55 36.080749 -115.138481 315 2190ft 0kts
09-Oct-19 11:56 36.080749 -115.138481 315 2190ft 0kts
09-Oct-19 11:57 36.080749 -115.138481 315 2190ft 0kts
09-Oct-19 11:58 36.080749 -115.138481 315 2190ft 0kts
09-Oct-19 11:59 36.080749 -115.138481 315 2190ft 0kts
09-Oct-19 12:00 36.080749 -115.138481 315 2190ft 0kts
09-Oct-19 12:01 36.080749 -115.138481 315 2190ft 0kts
09-Oct-19 12:02 36.080749 -115.138481 315 2190ft 0kts
09-Oct-19 12:03 36.080710 -115.138434 316 2190ft 2kts
09-Oct-19 12:04 36.080309 -115.137826 303 2190ft 2kts
09-Oct-19 12:05 36.080169 -115.137539 297 2190ft 0kts
09-Oct-19 12:06 36.080169 -115.137539 297 2190ft 0kts
09-Oct-19 12:07 36.080169 -115.137539 297 2190ft 0kts
09-Oct-19 12:08 36.080169 -115.137539 297 2190ft 0kts
09-Oct-19 12:09 36.079580 -115.138619 224 2190ft 7kts
09-Oct-19 12:10 36.079271 -115.139000 225 2190ft 0kts
09-Oct-19 12:11 36.078269 -115.138453 92 2190ft 6kts
09-Oct-19 12:12 36.078279 -115.135284 90 2190ft 13kts
09-Oct-19 12:13 36.078281 -115.130484 89 2190ft 19kts
09-Oct-19 12:14 36.078282 -115.123533 89 2190ft 9kts
09-Oct-19 12:15 36.077583 -115.121618 129 2190ft 1kts
09-Oct-19 12:16 36.076449 -115.121517 249 2190ft 7kts
09-Oct-19 12:17 36.076408 -115.130745 269 2190ft 113kts
09-Oct-19 12:18 36.076509 -115.186835 272 4065ft 171kts
09-Oct-19 12:19 36.077437 -115.252828 270 5365ft 222kts
09-Oct-19 12:20 36.114355 -115.310701 346 7551ft 252kts
09-Oct-19 12:21 36.179533 -115.287252 50 9835ft 269kts
09-Oct-19 12:22 36.204773 -115.191317 83 10858ft 331kts
09-Oct-19 12:23 36.200089 -115.068706 94 12061ft 372kts
09-Oct-19 12:24 36.197504 -114.937965 89 13885ft 386kts
09-Oct-19 12:25 36.203100 -114.803249 70 15649ft 398kts
09-Oct-19 12:26 36.274300 -114.701524 33 17416ft 399kts
09-Oct-19 12:27 36.366178 -114.621497 30 19218ft 408kts
09-Oct-19 12:28 36.459925 -114.537691 31 20862ft 421kts
09-Oct-19 12:29 36.554884 -114.448999 30 22433ft 432kts
09-Oct-19 12:30 36.656821 -114.367600 25 23968ft 439kts
09-Oct-19 12:31 36.762442 -114.287515 25 25331ft 450kts
09-Oct-19 12:32 36.870418 -114.204038 25 26646ft 461kts
09-Oct-19 12:33 36.980304 -114.118104 25 27812ft 470kts
09-Oct-19 12:34 37.091551 -114.030156 25 29153ft 471kts
09-Oct-19 12:35 37.202274 -113.941757 24 30460ft 471kts
09-Oct-19 12:36 37.314025 -113.853869 24 30810ft 473kts
09-Oct-19 12:37 37.425005 -113.766285 24 30816ft 470kts
09-Oct-19 12:38 37.535645 -113.678853 24 30827ft 470kts
09-Oct-19 12:39 37.646383 -113.590562 24 30839ft 471kts
09-Oct-19 12:40 37.756850 -113.501158 24 30850ft 471kts
09-Oct-19 12:41 37.867576 -113.412565 24 30852ft 471kts
09-Oct-19 12:42 37.978626 -113.323992 24 30852ft 473kts
09-Oct-19 12:43 38.089616 -113.233900 25 30847ft 476kts
09-Oct-19 12:45 38.201563 -113.142844 24 30839ft 477kts
09-Oct-19 12:46 38.313485 -113.052254 24 30836ft 479kts
09-Oct-19 12:47 38.428946 -112.968854 15 30832ft 471kts
09-Oct-19 12:48 38.550086 -112.907699 11 30836ft 468kts
09-Oct-19 12:49 38.671965 -112.847590 12 30865ft 471kts
09-Oct-19 12:50 38.793211 -112.783806 13 30880ft 473kts
09-Oct-19 12:51 38.914462 -112.717090 14 30896ft 475kts
09-Oct-19 12:52 39.036222 -112.650374 13 30907ft 474kts
09-Oct-19 12:53 39.158107 -112.584551 13 30912ft 476kts
09-Oct-19 12:54 39.280545 -112.517914 13 30912ft 477kts
09-Oct-19 12:55 39.404341 -112.447827 15 29078ft 494kts
09-Oct-19 12:56 39.526274 -112.375617 15 25945ft 462kts
09-Oct-19 12:57 39.638766 -112.310040 15 23118ft 429kts
09-Oct-19 12:58 39.745786 -112.249056 16 20498ft 415kts
09-Oct-19 12:59 39.851044 -112.188752 17 17865ft 410kts
09-Oct-19 13:00 39.953101 -112.129288 18 15338ft 392kts
09-Oct-19 13:01 40.043910 -112.065135 35 14059ft 352kts
09-Oct-19 13:02 40.134290 -112.009587 15 13777ft 366kts
09-Oct-19 13:03 40.228636 -111.960763 18 11676ft 357kts
09-Oct-19 13:04 40.318031 -111.929228 358 10926ft 305kts
09-Oct-19 13:05 40.397192 -111.927458 351 10945ft 278kts
09-Oct-19 13:06 40.473618 -111.939376 347 10932ft 277kts
09-Oct-19 13:06 40.535809 -111.946958 359 9235ft 265kts
09-Oct-19 13:07 40.606255 -111.953845 351 7419ft 238kts
09-Oct-19 13:09 40.674681 -111.961370 351 6178ft 180kts
09-Oct-19 13:09 40.710835 -111.965565 352 5462ft 139kts
09-Oct-19 13:10 40.747744 -111.969952 352 4793ft 136kts
09-Oct-19 13:11 40.784638 -111.974278 353 4237ft 115kts
09-Oct-19 13:13 40.796896 -111.976513 266 4236ft 4kts
09-Oct-19 13:13 40.796397 -111.977869 182 4236ft 13kts
09-Oct-19 13:14 40.792642 -111.977475 174 4236ft 0kts
09-Oct-19 13:15 40.791993 -111.977390 174 4236ft 8kts
09-Oct-19 13:16 40.790358 -111.978084 263 4236ft 5kts
09-Oct-19 13:17 40.789976 -111.981482 264 4236ft 8kts
09-Oct-19 13:18 40.789394 -111.983752 172 4236ft 3kts
09-Oct-19 13:19 40.788925 -111.984344 248 4236ft 0kts
09-Oct-19 13:20 40.788909 -111.984399 249 4236ft 0kts
09-Oct-19 13:21 40.788909 -111.984399 249 4236ft 0kts
09-Oct-19 13:22 40.788909 -111.984399 249 4236ft 0kts
09-Oct-19 13:23 40.788909 -111.984399 249 4236ft 0kts
09-Oct-19 13:24 40.788909 -111.984399 249 4236ft 0kts
09-Oct-19 13:25 40.788909 -111.984399 249 4236ft 0kts
09-Oct-19 13:26 40.788909 -111.984399 249 4236ft 0kts

Navigation Log

Ident Type
Flight plan parsing failed, navigation log unavailable